logo
App data

You Deserve

"You Deserve" is an horror indie game in which you will experience a bullying story about revenge, starring a teenager called Amy who is lost in a world that she doesn’t know and her only objective is to escape from it without getting murdered.
Store | Hub | SteamDB | Site
Developer: TGA Company LLC Publisher: TGA Company LLC
Genre: Violent, Adventure, Indie
Languages: English, Spanish - Spain
Tags: Indie (27), Adventure (25), Violent (22), Horror (17)
Category: Single-player, Steam Achievements, Steam Trading Cards, Commentary available
Release date: Aug 19, 2016
Price: $0.99
Old userscore: 73% Owners: 20,000 .. 50,000
Followers: 710
Peak concurrent players yesterday: 1
YouTube stats: 71 views and 4 comments for top 50 videos uploaded last week, 2 new videos uploaded yesterday.

Steam Spy is still in beta, so expect major bugs.

Owners data:

Access restricted.

This feature is only available to users with special access rights. Sorry.

If you want to proceed, you need to register or log in first and then back Steam Spy on Patreon. Look for Indie or Pro pledge.

Don't forget to use the same email as on Steam Spy!

Audience in 2 weeks:

Access restricted.

This feature is only available to users with special access rights. Sorry.

If you want to proceed, you need to register or log in first and then back Steam Spy on Patreon. Look for Indie or Pro pledge.

Don't forget to use the same email as on Steam Spy!

Peak daily concurrent players:

CCU data courtesy of SteamDB. Used with permission.

Hourly concurrent players:

Daily Twitch stats:

Hourly Twitch stats:

Followers over time

Access restricted.

This feature is only available to users with special access rights. Sorry.

If you want to proceed, you need to register or log in first and then back Steam Spy on Patreon. Look for Indie or Pro pledge.

Don't forget to use the same email as on Steam Spy!

Views for top 50 videos on YouTube for this game:

Games similar to this one:

# Game Release date
Price
Score rank
(Userscore / Metascore)
Owners
Players
Playtime (Median)
1 Pizza Express Jun 25, 2015 $6.99N/A (N/A)20,000 .. 50,0000%00:00 (00:00)
2 Tobari and the Night of the Curious Moon May 26, 2015 $9.99N/A (N/A)0 .. 20,0000%00:00 (00:00)
3 Spellsworn Mar 13, 2018 FreeN/A (N/A)200,000 .. 500,0000%00:00 (00:00)
4 Polyball Dec 1, 2017 $14.99N/A (N/A)0 .. 20,0000%00:00 (00:00)
5 Luna Sky Oct 2, 2015 $12.99N/A (N/A)50,000 .. 100,0000%00:00 (00:00)
6 Mysterious Space May 15, 2015 $10N/A (N/A)0 .. 20,0000%00:00 (00:00)
7 Interstellar Rift Jun 23, 2015 $18.99N/A (N/A)20,000 .. 50,0000%00:00 (00:00)
8 Treeker: The Lost Glasses May 13, 2015 $8.99N/A (N/A)0 .. 20,0000%00:00 (00:00)
9 BRAWL Aug 13, 2015 $14.99N/A (N/A)0 .. 20,0000%00:00 (00:00)
10 Season of 12 Colors Mar 14, 2016 $2.99N/A (N/A)20,000 .. 50,0000%00:00 (00:00)
11 AdvertCity Jun 5, 2015 $19.99N/A (N/A)0 .. 20,0000%00:00 (00:00)
12 Cosmophony Jul 9, 2015 $4.99N/A (N/A)0 .. 20,0000%00:00 (00:00)
13 Broken Bots Jun 8, 2016 $6.99N/A (N/A)0 .. 20,0000%00:00 (00:00)
14 Shoot 1UP Sep 23, 2015 $3.99N/A (N/A)0 .. 20,0000%00:00 (00:00)
15 Vernon's Legacy Sep 23, 2016 $11.99N/A (N/A)0 .. 20,0000%00:00 (00:00)
16 Impossiball Aug 8, 2017 $0.99N/A (N/A)0 .. 20,0000%00:00 (00:00)
17 Pixel Star May 22, 2015 $2.99N/A (N/A)20,000 .. 50,0000%00:00 (00:00)
18 Stranded May 20, 2014 $0.99N/A (N/A)20,000 .. 50,0000%00:00 (00:00)
19 ReignMaker Apr 16, 2014 $14.99N/A (N/A)50,000 .. 100,0000%00:00 (00:00)
20 Montas Mar 24, 2014 $9.99N/A (N/A)20,000 .. 50,0000%00:00 (00:00)
21 Autocraft Sep 20, 2017 $9.99N/A (N/A)20,000 .. 50,0000%00:00 (00:00)
22 Jones On Fire Mar 27, 2015 $2.99N/A (N/A)100,000 .. 200,0000%00:00 (00:00)
23 Volt Apr 14, 2014 $0.99N/A (N/A)50,000 .. 100,0000%00:00 (00:00)
24 10 Second Ninja Mar 5, 2014 $1.99N/A (N/A/72%)50,000 .. 100,0000%00:00 (00:00)
25 Vitrum Apr 22, 2014 $1.99N/A (N/A)20,000 .. 50,0000%00:00 (00:00)
26 Labyrinthine Dreams May 26, 2015 $1.99N/A (N/A)50,000 .. 100,0000%00:00 (00:00)
27 Three Dead Zed Jul 7, 2014 $5.99N/A (N/A)50,000 .. 100,0009.09%13:47 (04:35)
28 T.E.C. 3001 Apr 11, 2014 N/AN/A (N/A)20,000 .. 50,0000%00:00 (00:00)
29 Uriel's Chasm Sep 12, 2014 $4.99N/A (N/A)200,000 .. 500,0000%00:00 (00:00)
30 Munin Jun 10, 2014 $0.49N/A (N/A/68%)100,000 .. 200,0000%00:00 (00:00)
31 Arson and Plunder: Unleashed Sep 25, 2015 $4.99N/A (N/A)20,000 .. 50,0000%00:00 (00:00)
32 Rabbit Hole 3D: Steam Edition Apr 25, 2014 $2.99N/A (N/A)50,000 .. 100,0000%00:00 (00:00)
33 Pivvot Jul 14, 2014 $4.99N/A (N/A)0 .. 20,0000%00:00 (00:00)
34 Kromaia Oct 23, 2014 $19.99N/A (N/A/68%)20,000 .. 50,0000%00:00 (00:00)
35 Joana's Life Sep 1, 2016 $5.99N/A (N/A)50,000 .. 100,0000%00:00 (00:00)
36 Pixel Gladiator Sep 8, 2017 $4.99N/A (N/A)20,000 .. 50,0000%00:00 (00:00)
37 Pinkman Jan 16, 2017 $0.99N/A (N/A)0 .. 20,0000%00:00 (00:00)
38 Bohemian Killing Jul 21, 2016 $12.99N/A (N/A/55%)0 .. 20,0000%00:00 (00:00)
39 Intensive Exposure Sep 6, 2016 $4.99N/A (N/A)0 .. 20,0000%00:00 (00:00)
40 Pixel Cup Soccer 17 Aug 4, 2016 $9.99N/A (N/A)0 .. 20,0000%00:00 (00:00)
41 It Comes Around - A Kinetic Novel Sep 29, 2016 $2.99N/A (N/A)20,000 .. 50,0000%00:00 (00:00)
42 Alteric Jul 13, 2016 $3.99N/A (N/A)20,000 .. 50,0000%00:00 (00:00)
43 Starship Annihilator Sep 2, 2016 $0.99N/A (N/A)100,000 .. 200,0000%00:00 (00:00)
44 The Dark Legions Apr 1, 2004 $1.99N/A (N/A)0 .. 20,0000%00:00 (00:00)
45 The Gleam: VR Escape the Room Oct 14, 2016 $3.99N/A (N/A)100,000 .. 200,0000%00:00 (00:00)
46 Too Angry to Space Aug 8, 2016 $4.99N/A (N/A)0 .. 20,0000%00:00 (00:00)
47 mr.President Prologue Episode Sep 20, 2016 $0.99N/A (N/A)50,000 .. 100,0000%00:00 (00:00)
48 Dinosaur Forest May 17, 2017 $1.99N/A (N/A)50,000 .. 100,0000%00:00 (00:00)
49 BoomTown! Deluxe Oct 14, 2016 $1.99N/A (N/A)20,000 .. 50,0000%00:00 (00:00)
50 Showdown Adventure Sep 23, 2016 $2.99N/A (N/A)0 .. 20,0000%00:00 (00:00)
51 Son of a Witch May 16, 2018 $14.99N/A (N/A)0 .. 20,0000%00:00 (00:00)
52 8Bit Fiesta - Party Game Sep 30, 2016 FreeN/A (N/A)0 .. 20,0000%00:00 (00:00)
53 Earth Overclocked Dec 4, 2015 $4.99N/A (N/A)20,000 .. 50,0000%00:00 (00:00)
54 RETSNOM Jul 23, 2015 $4.99N/A (N/A)0 .. 20,0000%00:00 (00:00)
55 The Adventures of Mr. Bobley Jul 1, 2015 $3.99N/A (N/A)50,000 .. 100,0000%00:00 (00:00)
56 Mu Complex Oct 23, 2015 $8.99N/A (N/A)0 .. 20,0000%00:00 (00:00)
57 Monument Jun 5, 2015 $3.99N/A (N/A)20,000 .. 50,0000%00:00 (00:00)
58 Dead In Bermuda Aug 27, 2015 $14.99N/A (N/A)20,000 .. 50,0000%00:00 (00:00)
59 Western Press Apr 21, 2016 $4.99N/A (N/A)20,000 .. 50,0000%00:00 (00:00)
60 Aviary Attorney Dec 21, 2015 $14.99N/A (N/A/77%)50,000 .. 100,0000%00:00 (00:00)
61 Fortify Apr 8, 2016 $4.99N/A (N/A)0 .. 20,0000%00:00 (00:00)
62 none Nov 4, 2015 N/AN/A (N/A)20,000 .. 50,0000%00:00 (00:00)
63 Untamed: Life Of A Cougar Aug 27, 2015 $14.99N/A (N/A)0 .. 20,0000%00:00 (00:00)
64 Stray Cat Crossing Aug 28, 2015 $2.99N/A (N/A)20,000 .. 50,0000%00:00 (00:00)
65 Sky Rogue Aug 24, 2017 $19.99N/A (N/A)0 .. 20,0000%00:00 (00:00)
66 Super Trench Attack 2 Nov 6, 2015 $4.99N/A (N/A)20,000 .. 50,0000%00:00 (00:00)
67 Action Alien Jun 26, 2015 $3.99N/A (N/A)50,000 .. 100,0000%00:00 (00:00)
68 A.I. Invasion Sep 30, 2015 $9.99N/A (N/A)0 .. 20,0000%00:00 (00:00)
69 The Masterplan Jun 4, 2015 $19.99N/A (N/A/68%)100,000 .. 200,0000%00:00 (00:00)
70 TRISTOY Jan 15, 2015 $6.99N/A (N/A/49%)20,000 .. 50,0000%00:00 (00:00)
71 The Promised Land Apr 25, 2014 $6.99N/A (N/A)20,000 .. 50,0000%00:00 (00:00)
72 Concursion Jun 6, 2014 $4.99N/A (N/A/66%)20,000 .. 50,0000%00:00 (00:00)
73 TownCraft Feb 25, 2015 $9.99N/A (N/A)0 .. 20,0000%00:00 (00:00)
74 Fancy Skulls Jun 16, 2014 $8.99N/A (N/A)50,000 .. 100,0000%00:00 (00:00)
75 Dreaming Sarah Mar 12, 2015 $5.99N/A (N/A)100,000 .. 200,0000%00:00 (00:00)
76 Curses 'N Chaos Aug 18, 2015 $9.99N/A (N/A)20,000 .. 50,0000%00:00 (00:00)
77 Frederic: Resurrection of Music May 16, 2014 $2.99N/A (N/A)100,000 .. 200,0000%00:00 (00:00)
78 Back to Bed Aug 6, 2014 $5.99N/A (N/A)1,000,000 .. 2,000,0000%00:00 (00:00)
79 Frederic: Evil Strikes Back May 23, 2014 $7.99N/A (N/A)100,000 .. 200,0000%00:00 (00:00)
80 NEON STRUCT May 20, 2015 $17.99N/A (N/A/62%)50,000 .. 100,0000%00:00 (00:00)
81 Rhythm Destruction Jun 16, 2014 $4.99N/A (N/A)50,000 .. 100,0000%00:00 (00:00)
82 SEAL Team 12 Mar 18, 2015 $1.99N/A (N/A)0 .. 20,0000%00:00 (00:00)
83 Ballad of Solar Apr 18, 2013 $6.99N/A (N/A)0 .. 20,0000%00:00 (00:00)
84 OTTTD Aug 6, 2014 $7.99N/A (N/A)50,000 .. 100,0000%00:00 (00:00)
85 Boson X Sep 15, 2014 $2.99N/A (N/A)50,000 .. 100,0000%00:00 (00:00)
86 Child Phobia: Nightcoming Fears Dec 20, 2016 $1.99N/A (N/A)20,000 .. 50,0000%00:00 (00:00)
87 Mistwood Heroes Dec 30, 2016 $0.99N/A (N/A)20,000 .. 50,0000%00:00 (00:00)
88 Snake Pass Mar 28, 2017 $19.99N/A (N/A/71%)100,000 .. 200,0004.17%05:34 (01:51)
89 Open Sorcery Feb 22, 2017 $3.99N/A (N/A)0 .. 20,0000%00:00 (00:00)
90 Wayout Nov 4, 2016 $0.49N/A (N/A)50,000 .. 100,0007.69%04:17 (01:25)
91 Guns of Icarus Alliance Mar 31, 2017 $4.99N/A (N/A)50,000 .. 100,0000%00:00 (00:00)
92 Zolg Dec 2, 2016 $0.99N/A (N/A)20,000 .. 50,0000%00:00 (00:00)
93 The Archotek Project Apr 28, 2017 $4.99N/A (N/A)50,000 .. 100,0000.51%00:35 (00:11)
94 99Vidas Dec 22, 2016 $12.99N/A (N/A/69%)20,000 .. 50,0000%00:00 (00:00)
95 Witch It May 31, 2017 $7.49N/A (N/A)200,000 .. 500,00015.79%02:52 (02:41)
96 Introvert Quest Mar 15, 2017 $0.49N/A (N/A)100,000 .. 200,0000%00:00 (00:00)
97 Distant Space Dec 20, 2016 $0.99N/A (N/A)50,000 .. 100,0000%00:00 (00:00)
98 Shmadow Nov 3, 2015 $1.99N/A (N/A)20,000 .. 50,0000%00:00 (00:00)
99 Fist Slash: Of Ultimate Fury Dec 10, 2015 $3.99N/A (N/A)0 .. 20,0000%00:00 (00:00)
100 Moonbase 332 May 20, 2015 $4.99N/A (N/A)20,000 .. 50,0000%00:00 (00:00)
101 iZBOT Sep 1, 2015 $11.99N/A (N/A)0 .. 20,0000%00:00 (00:00)
102 Dragon's Wake Dec 10, 2015 $3.99N/A (N/A)20,000 .. 50,0000%00:00 (00:00)
103 Redemption: Eternal Quest Aug 28, 2015 $1.99N/A (N/A)100,000 .. 200,0000%00:00 (00:00)
104 Kitchen Simulator 2015 Sep 4, 2015 $0.99N/A (N/A)50,000 .. 100,0000%00:00 (00:00)
105 Angry Arrows Aug 12, 2015 $4.99N/A (N/A)20,000 .. 50,0000%00:00 (00:00)
106 ChargeShot Sep 18, 2015 $9.99N/A (N/A)20,000 .. 50,0000%00:00 (00:00)
107 The Musketeers: Victoria's Quest Aug 20, 2015 $3.99N/A (N/A)0 .. 20,0000%00:00 (00:00)
108 Press X to Not Die Oct 6, 2017 $2.99N/A (N/A)50,000 .. 100,0000%00:00 (00:00)
109 Void Invaders Aug 14, 2015 $2.99N/A (N/A)20,000 .. 50,0000%00:00 (00:00)
110 Club Life Apr 13, 2016 $11.99N/A (N/A)20,000 .. 50,0000%00:00 (00:00)
111 Blaster Shooter GunGuy! Aug 10, 2015 $1.99N/A (N/A)100,000 .. 200,0000%00:00 (00:00)
112 1,000 Heads Among the Trees Dec 11, 2015 $4.99N/A (N/A)100,000 .. 200,0000%00:00 (00:00)
113 Wild Island Quest Sep 4, 2015 $1.99N/A (N/A)50,000 .. 100,0000%00:00 (00:00)
114 Dream Factory Nov 2, 2015 $9.99N/A (N/A)0 .. 20,0000%00:00 (00:00)
115 Dwarf Tower Dec 23, 2014 $0.99N/A (N/A)20,000 .. 50,0000%00:00 (00:00)
116 Horizon Shift May 29, 2015 $4.99N/A (N/A)200,000 .. 500,0000%00:00 (00:00)
117 A City Sleeps Oct 16, 2014 $9.99N/A (N/A)20,000 .. 50,0000%00:00 (00:00)
118 Super Life of Pixel Oct 22, 2014 $9.99N/A (N/A)20,000 .. 50,00025%02:27 (01:13)
119 Velocibox Sep 8, 2014 $4.99N/A (N/A)50,000 .. 100,00014.29%02:22 (01:34)
120 The Deer God Feb 27, 2015 $14.99N/A (N/A/59%)20,000 .. 50,0000%00:00 (00:00)
121 Supreme: Pizza Empire Jan 9, 2015 $9.99N/A (N/A)0 .. 20,0000%00:00 (00:00)
122 Pix the Cat Jan 29, 2015 $9.99N/A (N/A/77%)50,000 .. 100,0000%00:00 (00:00)
123 Squishy the Suicidal Pig Oct 23, 2014 $5.99N/A (N/A)200,000 .. 500,0000%00:00 (00:00)
124 Tulpa Jan 29, 2015 $2.99N/A (N/A)50,000 .. 100,0000%00:00 (00:00)
125 Great Permutator Sep 15, 2014 $6.99N/A (N/A)20,000 .. 50,0000%00:00 (00:00)
126 Phoenix Force Nov 13, 2014 $3.99N/A (N/A)50,000 .. 100,0000%00:00 (00:00)
127 Chariot Nov 12, 2014 $14.99N/A (N/A/76%)50,000 .. 100,0000%00:00 (00:00)
128 Marvin's Mittens Dec 17, 2014 $5.99N/A (N/A)0 .. 20,0000%00:00 (00:00)
129 Ninja Pizza Girl Sep 30, 2015 $6.99N/A (N/A/82%)100,000 .. 200,0000%00:00 (00:00)
130 A Druid's Duel Feb 25, 2015 $7.99N/A (N/A/70%)20,000 .. 50,0000%00:00 (00:00)
131 iO Dec 5, 2014 $4.99N/A (N/A)50,000 .. 100,0000%00:00 (00:00)
132 Home Aug 31, 2012 $4.99N/A (N/A/69%)200,000 .. 500,0000%00:00 (00:00)
133 Element4l May 24, 2013 $8.99N/A (N/A/77%)50,000 .. 100,0000%00:00 (00:00)
134 Ultratron Mar 18, 2013 $9.99N/A (N/A)50,000 .. 100,0000%00:00 (00:00)
135 BIT.TRIP BEAT Nov 2, 2010 $9.99N/A (N/A)200,000 .. 500,0000%00:00 (00:00)
136 Cargo Commander Nov 1, 2012 $2.99N/A (N/A)100,000 .. 200,0000%00:00 (00:00)
137 Super Splatters Jun 26, 2013 N/AN/A (N/A/73%)100,000 .. 200,0000%00:00 (00:00)
138 Puddle Nov 9, 2012 $7.99N/A (N/A)100,000 .. 200,0000%00:00 (00:00)
139 Titan Attacks! Feb 3, 2012 $9.99N/A (N/A)100,000 .. 200,0000%00:00 (00:00)
140 Papo & Yo Apr 18, 2013 $14.99N/A (N/A/70%)200,000 .. 500,0000%00:00 (00:00)
141 Tales From Space: Mutant Blobs Attack Aug 15, 2012 $9.99N/A (N/A/83%)100,000 .. 200,0000%00:00 (00:00)
142 Dream Jul 31, 2015 $8.99N/A (N/A/59%)50,000 .. 100,0000%00:00 (00:00)
143 All Zombies Must Die!: Scorepocalypse Apr 19, 2012 $4.99N/A (N/A)20,000 .. 50,0000%00:00 (00:00)
144 Godus N/AN/A (N/A)20,000 .. 50,0000%00:00 (00:00)
145 Sugar Cube: Bittersweet Factory Nov 7, 2012 $6.99N/A (N/A)20,000 .. 50,0000%00:00 (00:00)
146 Wake $4.99N/A (N/A)0 .. 20,0000%00:00 (00:00)
147 Party of Sin Dec 13, 2012 $5.99N/A (N/A)50,000 .. 100,0000%00:00 (00:00)
148 Zack Zero Apr 29, 2013 $2.99N/A (N/A)50,000 .. 100,0000%00:00 (00:00)
149 Bell Ringer Mar 18, 2016 $6.99N/A (N/A)200,000 .. 500,0000%00:00 (00:00)
150 Evertown Jan 11, 2016 $1.99N/A (N/A)20,000 .. 50,0000%00:00 (00:00)
151 Space Moth DX Jan 22, 2016 $4.99N/A (N/A)20,000 .. 50,0000%00:00 (00:00)
152 The Purring Quest Nov 12, 2015 $9.99N/A (N/A)50,000 .. 100,00033.33%01:31 (00:30)
153 MetaHuman Inc. Dec 18, 2015 $5.99N/A (N/A)0 .. 20,0000%00:00 (00:00)
154 Perraw - FPS Clone War Alpha Jan 29, 2016 $0.99N/A (N/A)0 .. 20,0000%00:00 (00:00)
155 PERFECT ANGLE: The puzzle game based on optical illusions Dec 22, 2015 $9.99N/A (N/A)50,000 .. 100,0000%00:00 (00:00)
156 Faron's Fate Oct 15, 2015 $3.99N/A (N/A)0 .. 20,0000%00:00 (00:00)
157 TurnOn Jun 1, 2016 $14.99N/A (N/A/67%)20,000 .. 50,0000%00:00 (00:00)
158 Morphine Oct 28, 2015 $2.99N/A (N/A)50,000 .. 100,0000%00:00 (00:00)
159 IMSCARED Feb 3, 2016 $3.99N/A (N/A)20,000 .. 50,0000%00:00 (00:00)
160 Heavy Gear Assault Feb 10, 2017 $39.99N/A (N/A)0 .. 20,0000%00:00 (00:00)
161 Tiny Guardians Mar 24, 2016 $9.99N/A (N/A)0 .. 20,0000%00:00 (00:00)
162 Cosmic Leap Mar 17, 2016 $0.99N/A (N/A)20,000 .. 50,0000%00:00 (00:00)
163 Doodle Kingdom Jun 9, 2016 $8.99N/A (N/A)20,000 .. 50,0000%00:00 (00:00)
164 Godus Wars Feb 3, 2016 $14.99N/A (N/A)50,000 .. 100,0000%00:00 (00:00)
165 Rencounter Nov 4, 2016 $5.99N/A (N/A)20,000 .. 50,0000%00:00 (00:00)
166 BlastZone 2 Feb 19, 2015 $9.99N/A (N/A)20,000 .. 50,0000%00:00 (00:00)
167 On A Roll 3D Feb 12, 2015 $3.99N/A (N/A)50,000 .. 100,0000%00:00 (00:00)
168 Ephemerid: A Musical Adventure Feb 3, 2015 $1.99N/A (N/A)20,000 .. 50,0000%00:00 (00:00)
169 Glorkian Warrior: The Trials Of Glork Mar 24, 2015 $3.99N/A (N/A)20,000 .. 50,0000%00:00 (00:00)
170 Sky Mercenaries Dec 16, 2014 $9.99N/A (N/A)20,000 .. 50,0000%00:00 (00:00)
171 Countless Rooms of Death Jan 9, 2015 $0.99N/A (N/A)20,000 .. 50,0000%00:00 (00:00)
172 Bloody Streets Mar 12, 2015 $4.99N/A (N/A)20,000 .. 50,0000%00:00 (00:00)
173 stratO Jun 1, 2015 $4.99N/A (N/A)0 .. 20,0000%00:00 (00:00)
174 Chronicles of a Dark Lord: Episode 1 Tides of Fate Complete Dec 19, 2014 $0.99N/A (N/A)50,000 .. 100,0000%00:00 (00:00)
175 It came from space and ate our brains Mar 19, 2015 N/AN/A (N/A)50,000 .. 100,0000%00:00 (00:00)
176 Bermuda Mar 17, 2015 $2.99N/A (N/A)50,000 .. 100,0000%00:00 (00:00)
177 Disillusions Manga Horror Jan 16, 2015 $0.99N/A (N/A)20,000 .. 50,0000%00:00 (00:00)
178 Ukrainian Ninja Dec 23, 2014 FreeN/A (N/A)20,000 .. 50,0000%00:00 (00:00)
179 Three Fourths Home: Extended Edition Mar 20, 2015 $4.99N/A (N/A/77%)20,000 .. 50,0000%00:00 (00:00)
180 TIMEframe Jul 7, 2015 $5.99N/A (N/A)50,000 .. 100,0000%00:00 (00:00)
181 Rats - Time is running out! Aug 19, 2015 $4.99N/A (N/A)50,000 .. 100,0000%00:00 (00:00)
182 Tomb of Tyrants Jun 25, 2015 $7.99N/A (N/A)20,000 .. 50,0000%00:00 (00:00)
183 Share May 3, 2016 $0.99N/A (N/A)20,000 .. 50,0000%00:00 (00:00)
184 OPUS: The Day We Found Earth Apr 22, 2016 $8.99N/A (N/A)20,000 .. 50,0000%00:00 (00:00)
185 Yon Paradox May 6, 2016 $2.99N/A (N/A)0 .. 20,0000%00:00 (00:00)
186 Flobe Jan 23, 2016 $0.99N/A (N/A)0 .. 20,0000%00:00 (00:00)
187 Amigdala Mar 28, 2016 $5.99N/A (N/A)20,000 .. 50,0000%00:00 (00:00)
188 10 Second Ninja X Jul 19, 2016 $9.99N/A (N/A)50,000 .. 100,0000%00:00 (00:00)
189 Cube Land Arena Mar 29, 2016 $0.99N/A (N/A)50,000 .. 100,0000%00:00 (00:00)
190 Binaries Apr 4, 2016 $9.99N/A (N/A)0 .. 20,0000%00:00 (00:00)
191 Hero Quest: Tower Conflict Apr 13, 2016 $0.99N/A (N/A)200,000 .. 500,0000%00:00 (00:00)
192 Empire of the Gods Jan 27, 2016 $1.99N/A (N/A)0 .. 20,0000%00:00 (00:00)
193 CrazyCars3D Jun 14, 2016 $2.99N/A (N/A)50,000 .. 100,0000%00:00 (00:00)
194 Mindless Running Feb 18, 2016 $0.99N/A (N/A)50,000 .. 100,0000%00:00 (00:00)
195 MetaTron Dec 19, 2016 N/AN/A (N/A)0 .. 20,0000%00:00 (00:00)
196 Mimpi Dreams Mar 22, 2016 FreeN/A (N/A)20,000 .. 50,0000%00:00 (00:00)
197 Mainlining Jan 26, 2017 $12.99N/A (N/A/73%)20,000 .. 50,0000%00:00 (00:00)
198 Bunker Punks May 28, 2018 $14.99N/A (N/A)0 .. 20,0000%00:00 (00:00)
199 Domino Sky Apr 5, 2016 $3.99N/A (N/A)50,000 .. 100,0000%00:00 (00:00)
200 Kiai Resonance Apr 23, 2015 $4.99N/A (N/A)20,000 .. 50,0000%00:00 (00:00)
201 Leo’s Fortune - HD Edition Sep 8, 2015 $6.99N/A (N/A)0 .. 20,0000%00:00 (00:00)
202 Scribble Space Jun 1, 2015 $1.99N/A (N/A)20,000 .. 50,0000%00:00 (00:00)
203 Home is Where One Starts... May 12, 2015 $2.99N/A (N/A)20,000 .. 50,0000%00:00 (00:00)
204 Reflections Jun 26, 2015 $9.99N/A (N/A)0 .. 20,0000%00:00 (00:00)
205 Beyond Eyes Aug 11, 2015 $14.99N/A (N/A/60%)100,000 .. 200,0000%00:00 (00:00)
206 Porcunipine May 21, 2015 $9.99N/A (N/A)20,000 .. 50,0000%00:00 (00:00)
207 Orbit HD Mar 18, 2015 $1.99N/A (N/A)20,000 .. 50,0000%00:00 (00:00)
208 An Octave Higher Mar 27, 2015 $11.99N/A (N/A)0 .. 20,0000%00:00 (00:00)
209 Big Action Mega Fight! Jan 12, 2016 $1.99N/A (N/A)20,000 .. 50,0000%00:00 (00:00)
210 Star Horizon May 28, 2015 $4.99N/A (N/A)20,000 .. 50,0000%00:00 (00:00)
211 Inside My Radio May 11, 2015 $14.99N/A (N/A/68%)20,000 .. 50,0000%00:00 (00:00)
212 Bunker - The Underground Game May 21, 2015 $3.99N/A (N/A/70%)0 .. 20,0000%00:00 (00:00)
213 Gryphon Knight Epic Aug 20, 2015 $6.99N/A (N/A/55%)20,000 .. 50,0000%00:00 (00:00)
214 NEO AQUARIUM - The King of Crustaceans - Jun 8, 2015 $8.99N/A (N/A)20,000 .. 50,0000%00:00 (00:00)
215 Hare In The Hat Apr 1, 2015 $1.99N/A (N/A)50,000 .. 100,0000%00:00 (00:00)
216 Reign of Bullets Aug 19, 2015 $9.99N/A (N/A)0 .. 20,0000%00:00 (00:00)
217 Procyon Feb 26, 2014 $3.99N/A (N/A)20,000 .. 50,0000%00:00 (00:00)
218 Montague's Mount Nov 19, 2013 $4.99N/A (N/A/39%)20,000 .. 50,0000%00:00 (00:00)
219 Intake Nov 6, 2013 $9.99N/A (N/A)20,000 .. 50,0000%00:00 (00:00)
220 Ballpoint Universe - Infinite Dec 17, 2013 $3.99N/A (N/A)100,000 .. 200,0000%00:00 (00:00)
221 Super Puzzle Platformer Deluxe May 24, 2013 $7.99N/A (N/A)20,000 .. 50,0000%00:00 (00:00)
222 Drifter Mar 4, 2014 $11.99N/A (N/A)0 .. 20,0000%00:00 (00:00)
223 Poöf Nov 8, 2013 $6.99N/A (N/A)20,000 .. 50,0000%00:00 (00:00)
224 Journal Feb 17, 2014 $9.99N/A (N/A/59%)20,000 .. 50,0000%00:00 (00:00)
225 The Novelist Dec 10, 2013 $4.99N/A (N/A/66%)100,000 .. 200,0000%00:00 (00:00)
226 STARWHAL Sep 29, 2014 $11.99N/A (N/A)50,000 .. 100,0000%00:00 (00:00)
227 Solar Flux Oct 24, 2013 $9.99N/A (N/A)100,000 .. 200,0000%00:00 (00:00)
228 Full Bore May 6, 2014 $14.99N/A (N/A/72%)20,000 .. 50,0000%00:00 (00:00)
229 Maia Nov 23, 2018 $24.99N/A (N/A)50,000 .. 100,0000%00:00 (00:00)
230 A-Men Jan 24, 2014 $9.99N/A (N/A)0 .. 20,0000%00:00 (00:00)
231 Gentlemen! Nov 5, 2013 $4.99N/A (N/A)20,000 .. 50,0000%00:00 (00:00)
232 Imagine Me Dec 9, 2014 $2.99N/A (N/A)50,000 .. 100,0000%00:00 (00:00)
233 Survivor Squad Jan 21, 2015 $2.99N/A (N/A)100,000 .. 200,0000%00:00 (00:00)
234 Angel Express [Tokkyu Tenshi] Jul 15, 2016 $9.99N/A (N/A)0 .. 20,0000%00:00 (00:00)
235 Robot Legions Reborn Jul 19, 2016 $2.99N/A (N/A)20,000 .. 50,0000%00:00 (00:00)
236 Scanner Sombre Apr 26, 2017 $5.99N/A (N/A/67%)100,000 .. 200,0000%00:00 (00:00)
237 Wrath of Anna Apr 2, 2018 $19.99N/A (N/A)50,000 .. 100,0000%00:00 (00:00)
238 ORCS May 20, 2016 $1.99N/A (N/A)20,000 .. 50,0000%00:00 (00:00)
239 Snooker Nation Championship Apr 27, 2016 $3.99N/A (N/A)0 .. 20,0000%00:00 (00:00)
240 Reflection of Mine Feb 24, 2017 $7.99N/A (N/A)0 .. 20,0000%00:00 (00:00)
241 Dashy Square Apr 25, 2016 $2.99N/A (N/A)0 .. 20,0000%00:00 (00:00)
242 Star Drifter Jun 1, 2016 $0.99N/A (N/A)200,000 .. 500,0000%00:00 (00:00)
243 Moonstone Tavern - A Fantasy Tavern Sim! May 13, 2016 $7.99N/A (N/A)20,000 .. 50,0000%00:00 (00:00)
244 Call Of The Mighty Warriors Jun 2, 2016 $0.49N/A (N/A)50,000 .. 100,0000%00:00 (00:00)
245 NORTH Apr 27, 2016 $1.99N/A (N/A)200,000 .. 500,0000%00:00 (00:00)
246 Karma Miwa Aug 12, 2016 $0.99N/A (N/A)20,000 .. 50,0000%00:00 (00:00)
247 Deathwave Jun 9, 2016 $4.99N/A (N/A)0 .. 20,0000%00:00 (00:00)
248 Super Duper Party Pooper Jun 6, 2016 $0.99N/A (N/A/40%)100,000 .. 200,0000%00:00 (00:00)
249 上帝之城 I:监狱帝国 [City of God I - Prison Empire] Jul 9, 2018 $18.99N/A (N/A)100,000 .. 200,0000%00:00 (00:00)
250 DashBored Jun 13, 2016 $4.99N/A (N/A)20,000 .. 50,0000%00:00 (00:00)

Tags over time:

Access restricted.

This feature is only available to users with special access rights. Sorry.

If you want to proceed, you need to register or log in first and then back Steam Spy on Patreon. Look for Indie or Pro pledge.

Don't forget to use the same email as on Steam Spy!

Owners of this game also own:

Access restricted.

This feature is only available to users with special access rights. Sorry.

If you want to proceed, you need to register or log in first and then back Steam Spy on Patreon. Look for Indie or Pro pledge.

Don't forget to use the same email as on Steam Spy!

Playtime distribution:

Access restricted.

This feature is only available to users with special access rights. Sorry.

If you want to proceed, you need to register or log in first and then back Steam Spy on Patreon. Look for Indie or Pro pledge.

Don't forget to use the same email as on Steam Spy!

Playtime (2 weeks):

Access restricted.

This feature is only available to users with special access rights. Sorry.

If you want to proceed, you need to register or log in first and then back Steam Spy on Patreon. Look for Indie or Pro pledge.

Don't forget to use the same email as on Steam Spy!

User reviews:

Login required.

Please register or log in to see this information.